sensor_id;sensor_type;location;lat;lon;timestamp;P1;durP1;ratioP1;P2;durP2;ratioP2
70253;SDS011;57649;42.968;1.608;2024-02-26T00:00:14;4.93;;;1.23;;
70253;SDS011;57649;42.968;1.608;2024-02-26T00:02:40;5.97;;;1.50;;
70253;SDS011;57649;42.968;1.608;2024-02-26T00:05:07;8.77;;;2.45;;
70253;SDS011;57649;42.968;1.608;2024-02-26T00:07:33;3.60;;;1.13;;
70253;SDS011;57649;42.968;1.608;2024-02-26T00:09:58;5.32;;;1.55;;
70253;SDS011;57649;42.968;1.608;2024-02-26T00:12:24;4.22;;;1.42;;
70253;SDS011;57649;42.968;1.608;2024-02-26T00:14:49;11.07;;;1.60;;
70253;SDS011;57649;42.968;1.608;2024-02-26T00:17:15;6.85;;;1.33;;
70253;SDS011;57649;42.968;1.608;2024-02-26T00:19:41;5.85;;;1.48;;
70253;SDS011;57649;42.968;1.608;2024-02-26T00:22:06;5.93;;;2.42;;
70253;SDS011;57649;42.968;1.608;2024-02-26T00:24:32;5.63;;;1.92;;
70253;SDS011;57649;42.968;1.608;2024-02-26T00:26:58;5.95;;;2.58;;
70253;SDS011;57649;42.968;1.608;2024-02-26T00:29:24;5.28;;;2.13;;
70253;SDS011;57649;42.968;1.608;2024-02-26T00:31:50;6.57;;;3.10;;
70253;SDS011;57649;42.968;1.608;2024-02-26T00:34:16;7.05;;;1.90;;
70253;SDS011;57649;42.968;1.608;2024-02-26T00:36:41;4.78;;;1.67;;
70253;SDS011;57649;42.968;1.608;2024-02-26T00:39:07;9.88;;;2.30;;
70253;SDS011;57649;42.968;1.608;2024-02-26T00:41:32;7.38;;;2.75;;
70253;SDS011;57649;42.968;1.608;2024-02-26T00:43:58;9.73;;;2.60;;
70253;SDS011;57649;42.968;1.608;2024-02-26T00:46:23;6.00;;;2.80;;
70253;SDS011;57649;42.968;1.608;2024-02-26T00:48:49;10.02;;;3.13;;
70253;SDS011;57649;42.968;1.608;2024-02-26T00:51:14;8.77;;;3.28;;
70253;SDS011;57649;42.968;1.608;2024-02-26T00:53:40;6.97;;;3.65;;
70253;SDS011;57649;42.968;1.608;2024-02-26T00:56:05;6.50;;;3.20;;
70253;SDS011;57649;42.968;1.608;2024-02-26T00:58:31;6.60;;;3.80;;
70253;SDS011;57649;42.968;1.608;2024-02-26T01:00:57;9.18;;;4.10;;
70253;SDS011;57649;42.968;1.608;2024-02-26T01:03:23;7.75;;;3.70;;
70253;SDS011;57649;42.968;1.608;2024-02-26T01:05:48;9.57;;;3.85;;
70253;SDS011;57649;42.968;1.608;2024-02-26T01:08:14;7.78;;;3.28;;
70253;SDS011;57649;42.968;1.608;2024-02-26T01:10:39;8.35;;;2.72;;
70253;SDS011;57649;42.968;1.608;2024-02-26T01:13:04;11.50;;;4.28;;
70253;SDS011;57649;42.968;1.608;2024-02-26T01:15:30;7.03;;;2.70;;
70253;SDS011;57649;42.968;1.608;2024-02-26T01:17:55;8.75;;;2.65;;
70253;SDS011;57649;42.968;1.608;2024-02-26T01:20:21;8.43;;;2.22;;
70253;SDS011;57649;42.968;1.608;2024-02-26T01:22:46;9.35;;;2.60;;
70253;SDS011;57649;42.968;1.608;2024-02-26T01:25:12;9.63;;;4.40;;
70253;SDS011;57649;42.968;1.608;2024-02-26T01:27:38;8.70;;;3.60;;
70253;SDS011;57649;42.968;1.608;2024-02-26T01:30:06;9.85;;;3.00;;
70253;SDS011;57649;42.968;1.608;2024-02-26T01:32:32;7.60;;;2.95;;
70253;SDS011;57649;42.968;1.608;2024-02-26T01:34:57;7.55;;;2.25;;
70253;SDS011;57649;42.968;1.608;2024-02-26T01:37:23;4.40;;;1.80;;
70253;SDS011;57649;42.968;1.608;2024-02-26T01:39:48;4.63;;;1.88;;
70253;SDS011;57649;42.968;1.608;2024-02-26T01:42:14;9.77;;;3.60;;
70253;SDS011;57649;42.968;1.608;2024-02-26T01:44:39;7.25;;;2.85;;
70253;SDS011;57649;42.968;1.608;2024-02-26T01:47:10;7.63;;;2.97;;
70253;SDS011;57649;42.968;1.608;2024-02-26T01:49:36;5.93;;;1.70;;
70253;SDS011;57649;42.968;1.608;2024-02-26T01:52:03;10.07;;;4.15;;
70253;SDS011;57649;42.968;1.608;2024-02-26T01:54:31;5.45;;;2.22;;
70253;SDS011;57649;42.968;1.608;2024-02-26T01:56:57;9.40;;;3.63;;
70253;SDS011;57649;42.968;1.608;2024-02-26T01:59:23;5.30;;;1.90;;
70253;SDS011;57649;42.968;1.608;2024-02-26T02:01:52;3.45;;;1.05;;
70253;SDS011;57649;42.968;1.608;2024-02-26T02:04:21;13.05;;;5.25;;
70253;SDS011;57649;42.968;1.608;2024-02-26T02:06:48;11.48;;;4.15;;
70253;SDS011;57649;42.968;1.608;2024-02-26T02:09:13;10.13;;;4.65;;
70253;SDS011;57649;42.968;1.608;2024-02-26T02:11:39;10.32;;;4.22;;
70253;SDS011;57649;42.968;1.608;2024-02-26T02:14:05;7.03;;;2.83;;
70253;SDS011;57649;42.968;1.608;2024-02-26T02:16:31;3.92;;;1.60;;
70253;SDS011;57649;42.968;1.608;2024-02-26T02:18:57;4.60;;;1.52;;
70253;SDS011;57649;42.968;1.608;2024-02-26T02:21:23;2.65;;;1.30;;
70253;SDS011;57649;42.968;1.608;2024-02-26T02:23:48;4.75;;;1.10;;
70253;SDS011;57649;42.968;1.608;2024-02-26T02:26:14;3.50;;;1.83;;
70253;SDS011;57649;42.968;1.608;2024-02-26T02:28:40;4.25;;;2.35;;
70253;SDS011;57649;42.968;1.608;2024-02-26T02:31:06;5.30;;;2.80;;
70253;SDS011;57649;42.968;1.608;2024-02-26T02:33:33;2.30;;;1.40;;
70253;SDS011;57649;42.968;1.608;2024-02-26T02:35:59;2.85;;;1.45;;
70253;SDS011;57649;42.968;1.608;2024-02-26T02:38:25;3.20;;;1.30;;
70253;SDS011;57649;42.968;1.608;2024-02-26T02:40:51;3.78;;;1.67;;
70253;SDS011;57649;42.968;1.608;2024-02-26T02:43:17;3.40;;;1.60;;
70253;SDS011;57649;42.968;1.608;2024-02-26T02:45:42;3.72;;;1.10;;
70253;SDS011;57649;42.968;1.608;2024-02-26T02:48:08;2.92;;;1.20;;
70253;SDS011;57649;42.968;1.608;2024-02-26T02:50:33;3.83;;;1.48;;
70253;SDS011;57649;42.968;1.608;2024-02-26T02:52:58;3.47;;;1.35;;
70253;SDS011;57649;42.968;1.608;2024-02-26T02:55:24;2.70;;;1.48;;
70253;SDS011;57649;42.968;1.608;2024-02-26T02:57:50;3.63;;;1.60;;
70253;SDS011;57649;42.968;1.608;2024-02-26T03:00:15;3.28;;;1.38;;
70253;SDS011;57649;42.968;1.608;2024-02-26T03:02:41;2.78;;;1.20;;
70253;SDS011;57649;42.968;1.608;2024-02-26T03:05:08;4.30;;;1.45;;
70253;SDS011;57649;42.968;1.608;2024-02-26T03:07:33;2.38;;;1.08;;
70253;SDS011;57649;42.968;1.608;2024-02-26T03:09:59;5.32;;;2.08;;
70253;SDS011;57649;42.968;1.608;2024-02-26T03:12:24;9.02;;;3.60;;
70253;SDS011;57649;42.968;1.608;2024-02-26T03:14:50;4.10;;;2.10;;
70253;SDS011;57649;42.968;1.608;2024-02-26T03:17:16;12.52;;;4.50;;
70253;SDS011;57649;42.968;1.608;2024-02-26T03:19:41;6.63;;;2.58;;
70253;SDS011;57649;42.968;1.608;2024-02-26T03:22:11;5.80;;;1.10;;
70253;SDS011;57649;42.968;1.608;2024-02-26T03:24:37;3.65;;;1.58;;
70253;SDS011;57649;42.968;1.608;2024-02-26T03:27:02;5.63;;;1.67;;
70253;SDS011;57649;42.968;1.608;2024-02-26T03:29:28;2.03;;;0.88;;
70253;SDS011;57649;42.968;1.608;2024-02-26T03:31:53;2.53;;;0.90;;
70253;SDS011;57649;42.968;1.608;2024-02-26T03:34:18;5.80;;;1.83;;
70253;SDS011;57649;42.968;1.608;2024-02-26T03:36:44;2.28;;;1.30;;
70253;SDS011;57649;42.968;1.608;2024-02-26T03:39:10;3.30;;;0.80;;
70253;SDS011;57649;42.968;1.608;2024-02-26T03:41:36;2.17;;;0.88;;
70253;SDS011;57649;42.968;1.608;2024-02-26T03:44:02;2.47;;;0.93;;
70253;SDS011;57649;42.968;1.608;2024-02-26T03:46:27;1.85;;;0.90;;
70253;SDS011;57649;42.968;1.608;2024-02-26T03:48:53;3.75;;;1.20;;
70253;SDS011;57649;42.968;1.608;2024-02-26T03:51:19;7.10;;;2.97;;
70253;SDS011;57649;42.968;1.608;2024-02-26T03:53:44;11.75;;;4.28;;
70253;SDS011;57649;42.968;1.608;2024-02-26T03:56:11;12.68;;;4.50;;
70253;SDS011;57649;42.968;1.608;2024-02-26T03:58:36;7.82;;;2.58;;
70253;SDS011;57649;42.968;1.608;2024-02-26T04:01:02;9.30;;;2.40;;
70253;SDS011;57649;42.968;1.608;2024-02-26T04:03:30;5.95;;;2.88;;
70253;SDS011;57649;42.968;1.608;2024-02-26T04:05:55;6.93;;;2.70;;
70253;SDS011;57649;42.968;1.608;2024-02-26T04:08:21;3.65;;;1.95;;
70253;SDS011;57649;42.968;1.608;2024-02-26T04:10:46;9.77;;;4.38;;
70253;SDS011;57649;42.968;1.608;2024-02-26T04:13:11;5.38;;;2.72;;
70253;SDS011;57649;42.968;1.608;2024-02-26T04:15:37;10.73;;;3.22;;
70253;SDS011;57649;42.968;1.608;2024-02-26T04:18:02;5.95;;;2.40;;
70253;SDS011;57649;42.968;1.608;2024-02-26T04:20:28;4.00;;;1.60;;
70253;SDS011;57649;42.968;1.608;2024-02-26T04:22:53;7.60;;;2.08;;
70253;SDS011;57649;42.968;1.608;2024-02-26T04:25:18;7.32;;;2.70;;
70253;SDS011;57649;42.968;1.608;2024-02-26T04:27:44;7.80;;;2.97;;
70253;SDS011;57649;42.968;1.608;2024-02-26T04:30:09;6.13;;;3.05;;
70253;SDS011;57649;42.968;1.608;2024-02-26T04:32:35;4.32;;;1.88;;
70253;SDS011;57649;42.968;1.608;2024-02-26T04:35:01;3.85;;;2.10;;
70253;SDS011;57649;42.968;1.608;2024-02-26T04:37:27;10.25;;;3.90;;
70253;SDS011;57649;42.968;1.608;2024-02-26T04:39:58;6.03;;;2.78;;
70253;SDS011;57649;42.968;1.608;2024-02-26T04:42:24;4.13;;;1.85;;
70253;SDS011;57649;42.968;1.608;2024-02-26T04:44:50;7.05;;;3.83;;
70253;SDS011;57649;42.968;1.608;2024-02-26T04:47:15;17.17;;;8.43;;
70253;SDS011;57649;42.968;1.608;2024-02-26T04:49:41;11.30;;;5.25;;
70253;SDS011;57649;42.968;1.608;2024-02-26T04:52:06;11.50;;;6.30;;
70253;SDS011;57649;42.968;1.608;2024-02-26T04:54:31;6.05;;;3.17;;
70253;SDS011;57649;42.968;1.608;2024-02-26T04:56:57;5.30;;;2.60;;
70253;SDS011;57649;42.968;1.608;2024-02-26T04:59:22;6.28;;;2.85;;
70253;SDS011;57649;42.968;1.608;2024-02-26T05:01:47;5.35;;;2.03;;
70253;SDS011;57649;42.968;1.608;2024-02-26T05:04:13;2.58;;;1.20;;
70253;SDS011;57649;42.968;1.608;2024-02-26T05:06:38;2.63;;;1.17;;
70253;SDS011;57649;42.968;1.608;2024-02-26T05:09:04;4.00;;;1.25;;
70253;SDS011;57649;42.968;1.608;2024-02-26T05:11:31;3.85;;;1.80;;
70253;SDS011;57649;42.968;1.608;2024-02-26T05:13:57;2.92;;;1.13;;
70253;SDS011;57649;42.968;1.608;2024-02-26T05:16:22;3.33;;;1.80;;
70253;SDS011;57649;42.968;1.608;2024-02-26T05:18:49;3.42;;;1.58;;
70253;SDS011;57649;42.968;1.608;2024-02-26T05:21:15;4.47;;;1.70;;
70253;SDS011;57649;42.968;1.608;2024-02-26T05:23:40;3.17;;;1.08;;
70253;SDS011;57649;42.968;1.608;2024-02-26T05:26:08;4.00;;;1.98;;
70253;SDS011;57649;42.968;1.608;2024-02-26T05:28:34;2.42;;;1.50;;
70253;SDS011;57649;42.968;1.608;2024-02-26T05:30:59;5.10;;;1.80;;
70253;SDS011;57649;42.968;1.608;2024-02-26T05:33:25;3.65;;;1.75;;
70253;SDS011;57649;42.968;1.608;2024-02-26T05:35:51;5.72;;;1.73;;
70253;SDS011;57649;42.968;1.608;2024-02-26T05:38:16;6.40;;;2.20;;
70253;SDS011;57649;42.968;1.608;2024-02-26T05:40:41;5.72;;;2.35;;
70253;SDS011;57649;42.968;1.608;2024-02-26T05:43:07;5.18;;;2.33;;
70253;SDS011;57649;42.968;1.608;2024-02-26T05:45:32;7.85;;;2.80;;
70253;SDS011;57649;42.968;1.608;2024-02-26T05:47:58;4.93;;;2.25;;
70253;SDS011;57649;42.968;1.608;2024-02-26T05:50:23;4.25;;;2.45;;
70253;SDS011;57649;42.968;1.608;2024-02-26T05:52:49;3.53;;;2.03;;
70253;SDS011;57649;42.968;1.608;2024-02-26T05:55:14;5.82;;;2.75;;
70253;SDS011;57649;42.968;1.608;2024-02-26T05:57:40;5.85;;;2.65;;
70253;SDS011;57649;42.968;1.608;2024-02-26T06:00:06;5.25;;;2.35;;
70253;SDS011;57649;42.968;1.608;2024-02-26T06:02:32;5.53;;;3.10;;
70253;SDS011;57649;42.968;1.608;2024-02-26T06:04:57;5.00;;;2.67;;
70253;SDS011;57649;42.968;1.608;2024-02-26T06:07:23;4.03;;;1.90;;
70253;SDS011;57649;42.968;1.608;2024-02-26T06:09:48;12.55;;;4.60;;
70253;SDS011;57649;42.968;1.608;2024-02-26T06:12:14;8.02;;;4.15;;
70253;SDS011;57649;42.968;1.608;2024-02-26T06:14:39;9.73;;;3.50;;
70253;SDS011;57649;42.968;1.608;2024-02-26T06:17:05;55.05;;;25.30;;
70253;SDS011;57649;42.968;1.608;2024-02-26T06:19:32;36.60;;;18.42;;
70253;SDS011;57649;42.968;1.608;2024-02-26T06:21:57;10.50;;;5.72;;
70253;SDS011;57649;42.968;1.608;2024-02-26T06:24:22;20.80;;;8.75;;
70253;SDS011;57649;42.968;1.608;2024-02-26T06:26:48;26.95;;;13.75;;
70253;SDS011;57649;42.968;1.608;2024-02-26T06:29:14;6.13;;;2.10;;
70253;SDS011;57649;42.968;1.608;2024-02-26T06:31:39;4.55;;;2.58;;
70253;SDS011;57649;42.968;1.608;2024-02-26T06:34:05;8.38;;;4.90;;
70253;SDS011;57649;42.968;1.608;2024-02-26T06:36:31;3.40;;;1.80;;
70253;SDS011;57649;42.968;1.608;2024-02-26T06:38:57;5.47;;;2.97;;
70253;SDS011;57649;42.968;1.608;2024-02-26T06:41:23;7.78;;;3.22;;
70253;SDS011;57649;42.968;1.608;2024-02-26T06:43:55;4.00;;;2.13;;
70253;SDS011;57649;42.968;1.608;2024-02-26T06:46:21;10.82;;;4.43;;
70253;SDS011;57649;42.968;1.608;2024-02-26T06:48:50;3.92;;;2.03;;
70253;SDS011;57649;42.968;1.608;2024-02-26T06:51:16;5.38;;;2.42;;
70253;SDS011;57649;42.968;1.608;2024-02-26T06:53:41;8.25;;;4.78;;
70253;SDS011;57649;42.968;1.608;2024-02-26T06:56:06;4.57;;;3.33;;
70253;SDS011;57649;42.968;1.608;2024-02-26T06:58:32;7.70;;;4.22;;
70253;SDS011;57649;42.968;1.608;2024-02-26T07:00:58;6.88;;;3.08;;
70253;SDS011;57649;42.968;1.608;2024-02-26T07:03:23;6.05;;;3.92;;
70253;SDS011;57649;42.968;1.608;2024-02-26T07:05:50;9.50;;;4.70;;
70253;SDS011;57649;42.968;1.608;2024-02-26T07:08:16;7.82;;;5.90;;
70253;SDS011;57649;42.968;1.608;2024-02-26T07:10:41;4.07;;;3.05;;
70253;SDS011;57649;42.968;1.608;2024-02-26T07:13:08;6.28;;;2.60;;
70253;SDS011;57649;42.968;1.608;2024-02-26T07:15:34;5.10;;;2.67;;
70253;SDS011;57649;42.968;1.608;2024-02-26T07:17:59;8.35;;;4.07;;
70253;SDS011;57649;42.968;1.608;2024-02-26T07:20:28;7.05;;;4.25;;
70253;SDS011;57649;42.968;1.608;2024-02-26T07:22:56;5.47;;;3.00;;
70253;SDS011;57649;42.968;1.608;2024-02-26T07:25:22;5.47;;;2.78;;
70253;SDS011;57649;42.968;1.608;2024-02-26T07:27:49;6.35;;;3.10;;
70253;SDS011;57649;42.968;1.608;2024-02-26T07:30:15;4.95;;;2.90;;
70253;SDS011;57649;42.968;1.608;2024-02-26T07:32:41;7.63;;;3.83;;
70253;SDS011;57649;42.968;1.608;2024-02-26T07:35:07;6.78;;;3.80;;
70253;SDS011;57649;42.968;1.608;2024-02-26T07:37:33;6.40;;;3.42;;
70253;SDS011;57649;42.968;1.608;2024-02-26T07:39:58;6.68;;;3.80;;
70253;SDS011;57649;42.968;1.608;2024-02-26T07:42:24;4.80;;;2.83;;
70253;SDS011;57649;42.968;1.608;2024-02-26T07:44:50;5.20;;;2.70;;
70253;SDS011;57649;42.968;1.608;2024-02-26T07:47:16;6.05;;;3.38;;
70253;SDS011;57649;42.968;1.608;2024-02-26T07:49:41;7.63;;;5.00;;
70253;SDS011;57649;42.968;1.608;2024-02-26T07:52:06;9.25;;;4.65;;
70253;SDS011;57649;42.968;1.608;2024-02-26T07:54:32;4.93;;;3.50;;
70253;SDS011;57649;42.968;1.608;2024-02-26T07:56:57;5.20;;;3.67;;
70253;SDS011;57649;42.968;1.608;2024-02-26T07:59:25;6.05;;;2.80;;
70253;SDS011;57649;42.968;1.608;2024-02-26T08:01:51;7.50;;;4.60;;
70253;SDS011;57649;42.968;1.608;2024-02-26T08:04:17;15.23;;;7.57;;
70253;SDS011;57649;42.968;1.608;2024-02-26T08:06:42;10.32;;;5.30;;
70253;SDS011;57649;42.968;1.608;2024-02-26T08:09:08;15.32;;;6.78;;
70253;SDS011;57649;42.968;1.608;2024-02-26T08:11:34;17.23;;;6.90;;
70253;SDS011;57649;42.968;1.608;2024-02-26T08:13:59;17.10;;;7.85;;
70253;SDS011;57649;42.968;1.608;2024-02-26T08:16:25;25.17;;;9.90;;
70253;SDS011;57649;42.968;1.608;2024-02-26T08:18:50;20.15;;;8.45;;
70253;SDS011;57649;42.968;1.608;2024-02-26T08:21:16;11.48;;;6.72;;
70253;SDS011;57649;42.968;1.608;2024-02-26T08:23:43;9.07;;;6.28;;
70253;SDS011;57649;42.968;1.608;2024-02-26T08:26:08;7.97;;;4.30;;
70253;SDS011;57649;42.968;1.608;2024-02-26T08:28:36;8.90;;;5.20;;
70253;SDS011;57649;42.968;1.608;2024-02-26T08:31:02;6.25;;;3.72;;
70253;SDS011;57649;42.968;1.608;2024-02-26T08:33:27;6.28;;;4.20;;
70253;SDS011;57649;42.968;1.608;2024-02-26T08:35:53;7.07;;;3.83;;
70253;SDS011;57649;42.968;1.608;2024-02-26T08:38:18;6.10;;;3.85;;
70253;SDS011;57649;42.968;1.608;2024-02-26T08:40:44;7.78;;;5.22;;
70253;SDS011;57649;42.968;1.608;2024-02-26T08:43:09;6.20;;;4.30;;
70253;SDS011;57649;42.968;1.608;2024-02-26T08:45:35;5.03;;;3.95;;
70253;SDS011;57649;42.968;1.608;2024-02-26T08:48:00;4.72;;;3.45;;
70253;SDS011;57649;42.968;1.608;2024-02-26T08:50:26;6.78;;;3.60;;
70253;SDS011;57649;42.968;1.608;2024-02-26T08:52:51;4.88;;;3.10;;
70253;SDS011;57649;42.968;1.608;2024-02-26T08:55:18;5.03;;;3.28;;
70253;SDS011;57649;42.968;1.608;2024-02-26T08:57:43;4.97;;;3.42;;
70253;SDS011;57649;42.968;1.608;2024-02-26T09:00:09;6.13;;;3.35;;
70253;SDS011;57649;42.968;1.608;2024-02-26T09:02:36;6.00;;;2.58;;
70253;SDS011;57649;42.968;1.608;2024-02-26T09:05:03;3.55;;;2.45;;
70253;SDS011;57649;42.968;1.608;2024-02-26T09:07:30;4.28;;;2.72;;
70253;SDS011;57649;42.968;1.608;2024-02-26T09:09:56;5.78;;;2.33;;
70253;SDS011;57649;42.968;1.608;2024-02-26T09:12:21;3.10;;;2.20;;
70253;SDS011;57649;42.968;1.608;2024-02-26T09:14:47;4.50;;;2.40;;
70253;SDS011;57649;42.968;1.608;2024-02-26T09:17:12;5.70;;;3.30;;
70253;SDS011;57649;42.968;1.608;2024-02-26T09:19:38;6.53;;;4.55;;
70253;SDS011;57649;42.968;1.608;2024-02-26T09:22:03;4.38;;;3.63;;
70253;SDS011;57649;42.968;1.608;2024-02-26T09:24:29;6.10;;;3.53;;
70253;SDS011;57649;42.968;1.608;2024-02-26T09:26:54;7.13;;;4.22;;
70253;SDS011;57649;42.968;1.608;2024-02-26T09:29:20;5.63;;;2.85;;
70253;SDS011;57649;42.968;1.608;2024-02-26T09:31:45;6.30;;;2.40;;
70253;SDS011;57649;42.968;1.608;2024-02-26T09:34:12;5.60;;;3.30;;
70253;SDS011;57649;42.968;1.608;2024-02-26T09:36:38;5.45;;;2.50;;
70253;SDS011;57649;42.968;1.608;2024-02-26T09:39:04;4.35;;;2.60;;
70253;SDS011;57649;42.968;1.608;2024-02-26T09:41:30;3.53;;;2.28;;
70253;SDS011;57649;42.968;1.608;2024-02-26T09:43:56;6.75;;;2.20;;
70253;SDS011;57649;42.968;1.608;2024-02-26T09:46:25;5.47;;;2.15;;
70253;SDS011;57649;42.968;1.608;2024-02-26T09:48:51;3.10;;;1.52;;
70253;SDS011;57649;42.968;1.608;2024-02-26T09:51:16;3.88;;;2.45;;
70253;SDS011;57649;42.968;1.608;2024-02-26T09:53:43;3.95;;;2.38;;
70253;SDS011;57649;42.968;1.608;2024-02-26T09:56:12;5.75;;;2.80;;
70253;SDS011;57649;42.968;1.608;2024-02-26T09:58:40;2.25;;;1.52;;
70253;SDS011;57649;42.968;1.608;2024-02-26T10:01:10;3.53;;;1.17;;
70253;SDS011;57649;42.968;1.608;2024-02-26T10:03:38;4.32;;;1.40;;
70253;SDS011;57649;42.968;1.608;2024-02-26T10:06:07;4.03;;;1.58;;
70253;SDS011;57649;42.968;1.608;2024-02-26T10:08:33;3.30;;;1.40;;
70253;SDS011;57649;42.968;1.608;2024-02-26T10:11:00;3.95;;;1.70;;
70253;SDS011;57649;42.968;1.608;2024-02-26T10:13:26;3.17;;;1.38;;
70253;SDS011;57649;42.968;1.608;2024-02-26T10:15:51;2.17;;;0.80;;
70253;SDS011;57649;42.968;1.608;2024-02-26T10:18:17;2.75;;;1.10;;
70253;SDS011;57649;42.968;1.608;2024-02-26T10:20:45;5.43;;;1.60;;
70253;SDS011;57649;42.968;1.608;2024-02-26T10:23:29;4.28;;;1.20;;
70253;SDS011;57649;42.968;1.608;2024-02-26T10:25:54;3.88;;;1.15;;
70253;SDS011;57649;42.968;1.608;2024-02-26T10:28:20;5.15;;;1.30;;
70253;SDS011;57649;42.968;1.608;2024-02-26T10:30:46;3.25;;;1.00;;
70253;SDS011;57649;42.968;1.608;2024-02-26T10:33:11;2.38;;;0.85;;
70253;SDS011;57649;42.968;1.608;2024-02-26T10:35:38;1.33;;;0.70;;
70253;SDS011;57649;42.968;1.608;2024-02-26T10:38:06;2.97;;;1.20;;
70253;SDS011;57649;42.968;1.608;2024-02-26T10:40:32;2.13;;;0.85;;
70253;SDS011;57649;42.968;1.608;2024-02-26T10:43:00;2.17;;;1.00;;
70253;SDS011;57649;42.968;1.608;2024-02-26T10:45:27;2.70;;;0.90;;
70253;SDS011;57649;42.968;1.608;2024-02-26T10:47:52;0.98;;;0.40;;
70253;SDS011;57649;42.968;1.608;2024-02-26T10:50:19;1.38;;;0.60;;
70253;SDS011;57649;42.968;1.608;2024-02-26T10:52:45;1.52;;;0.90;;
70253;SDS011;57649;42.968;1.608;2024-02-26T10:55:13;1.10;;;0.70;;
70253;SDS011;57649;42.968;1.608;2024-02-26T10:57:43;3.15;;;0.90;;
70253;SDS011;57649;42.968;1.608;2024-02-26T11:00:10;2.53;;;1.20;;
70253;SDS011;57649;42.968;1.608;2024-02-26T11:05:06;2.60;;;0.63;;
70253;SDS011;57649;42.968;1.608;2024-02-26T11:07:32;3.13;;;0.70;;
70253;SDS011;57649;42.968;1.608;2024-02-26T11:10:00;3.70;;;1.25;;
70253;SDS011;57649;42.968;1.608;2024-02-26T11:12:27;2.63;;;0.50;;
70253;SDS011;57649;42.968;1.608;2024-02-26T11:14:54;5.03;;;1.38;;
70253;SDS011;57649;42.968;1.608;2024-02-26T11:17:22;1.73;;;0.70;;
70253;SDS011;57649;42.968;1.608;2024-02-26T11:19:51;3.08;;;1.58;;
70253;SDS011;57649;42.968;1.608;2024-02-26T11:22:20;2.13;;;1.27;;
70253;SDS011;57649;42.968;1.608;2024-02-26T11:24:47;3.90;;;1.30;;
70253;SDS011;57649;42.968;1.608;2024-02-26T11:27:13;3.92;;;1.30;;
70253;SDS011;57649;42.968;1.608;2024-02-26T11:29:49;5.43;;;1.17;;
70253;SDS011;57649;42.968;1.608;2024-02-26T11:32:17;3.13;;;1.10;;
70253;SDS011;57649;42.968;1.608;2024-02-26T11:34:43;2.95;;;1.48;;
70253;SDS011;57649;42.968;1.608;2024-02-26T11:37:10;2.22;;;0.90;;
70253;SDS011;57649;42.968;1.608;2024-02-26T11:39:36;1.60;;;0.80;;
70253;SDS011;57649;42.968;1.608;2024-02-26T11:42:12;3.58;;;1.00;;
70253;SDS011;57649;42.968;1.608;2024-02-26T11:44:39;1.67;;;0.50;;
70253;SDS011;57649;42.968;1.608;2024-02-26T11:47:13;3.00;;;1.30;;
70253;SDS011;57649;42.968;1.608;2024-02-26T11:49:43;2.15;;;0.85;;
70253;SDS011;57649;42.968;1.608;2024-02-26T11:52:09;4.18;;;1.35;;
70253;SDS011;57649;42.968;1.608;2024-02-26T11:57:26;2.15;;;0.98;;
70253;SDS011;57649;42.968;1.608;2024-02-26T11:59:56;2.95;;;1.40;;
70253;SDS011;57649;42.968;1.608;2024-02-26T12:02:45;2.67;;;0.98;;
70253;SDS011;57649;42.968;1.608;2024-02-26T12:05:15;0.77;;;0.50;;
70253;SDS011;57649;42.968;1.608;2024-02-26T12:07:43;2.47;;;0.95;;
70253;SDS011;57649;42.968;1.608;2024-02-26T12:10:35;2.17;;;1.30;;
70253;SDS011;57649;42.968;1.608;2024-02-26T12:13:13;5.28;;;0.98;;
70253;SDS011;57649;42.968;1.608;2024-02-26T12:18:17;2.47;;;0.90;;
70253;SDS011;57649;42.968;1.608;2024-02-26T12:20:43;1.17;;;0.70;;
70253;SDS011;57649;42.968;1.608;2024-02-26T12:23:09;4.13;;;1.23;;
70253;SDS011;57649;42.968;1.608;2024-02-26T12:25:40;2.13;;;0.82;;
70253;SDS011;57649;42.968;1.608;2024-02-26T12:28:06;1.40;;;0.60;;
70253;SDS011;57649;42.968;1.608;2024-02-26T12:30:34;3.75;;;1.55;;
70253;SDS011;57649;42.968;1.608;2024-02-26T12:33:00;4.28;;;1.55;;
70253;SDS011;57649;42.968;1.608;2024-02-26T12:35:26;3.35;;;0.90;;
70253;SDS011;57649;42.968;1.608;2024-02-26T12:37:53;3.47;;;1.10;;
70253;SDS011;57649;42.968;1.608;2024-02-26T12:40:19;2.25;;;0.90;;
70253;SDS011;57649;42.968;1.608;2024-02-26T12:42:45;3.25;;;1.33;;
70253;SDS011;57649;42.968;1.608;2024-02-26T12:45:11;1.13;;;0.52;;
70253;SDS011;57649;42.968;1.608;2024-02-26T12:47:38;1.77;;;0.80;;
70253;SDS011;57649;42.968;1.608;2024-02-26T12:50:04;2.55;;;1.00;;
70253;SDS011;57649;42.968;1.608;2024-02-26T12:52:34;2.10;;;0.95;;
70253;SDS011;57649;42.968;1.608;2024-02-26T12:55:03;2.95;;;0.88;;
70253;SDS011;57649;42.968;1.608;2024-02-26T12:57:31;5.55;;;1.90;;
70253;SDS011;57649;42.968;1.608;2024-02-26T12:59:58;2.55;;;0.93;;
70253;SDS011;57649;42.968;1.608;2024-02-26T13:02:25;1.00;;;0.70;;
70253;SDS011;57649;42.968;1.608;2024-02-26T13:04:51;2.35;;;0.60;;
70253;SDS011;57649;42.968;1.608;2024-02-26T13:07:18;2.05;;;0.70;;
70253;SDS011;57649;42.968;1.608;2024-02-26T13:09:44;2.80;;;0.63;;
70253;SDS011;57649;42.968;1.608;2024-02-26T13:12:09;3.15;;;0.75;;
70253;SDS011;57649;42.968;1.608;2024-02-26T13:14:35;1.90;;;0.75;;
70253;SDS011;57649;42.968;1.608;2024-02-26T13:17:03;1.67;;;0.60;;
70253;SDS011;57649;42.968;1.608;2024-02-26T13:19:28;2.33;;;0.80;;
70253;SDS011;57649;42.968;1.608;2024-02-26T13:21:54;1.60;;;0.70;;
70253;SDS011;57649;42.968;1.608;2024-02-26T13:24:21;1.88;;;0.98;;
70253;SDS011;57649;42.968;1.608;2024-02-26T13:26:53;3.03;;;1.10;;
70253;SDS011;57649;42.968;1.608;2024-02-26T13:29:19;3.05;;;1.00;;
70253;SDS011;57649;42.968;1.608;2024-02-26T13:31:45;3.78;;;1.30;;
70253;SDS011;57649;42.968;1.608;2024-02-26T13:34:12;1.85;;;0.90;;
70253;SDS011;57649;42.968;1.608;2024-02-26T13:36:49;3.25;;;0.90;;
70253;SDS011;57649;42.968;1.608;2024-02-26T13:39:20;2.35;;;0.90;;
70253;SDS011;57649;42.968;1.608;2024-02-26T13:41:47;9.15;;;6.80;;
70253;SDS011;57649;42.968;1.608;2024-02-26T13:44:13;1.90;;;0.90;;
70253;SDS011;57649;42.968;1.608;2024-02-26T13:46:38;2.35;;;0.90;;
70253;SDS011;57649;42.968;1.608;2024-02-26T13:49:04;2.40;;;1.00;;
70253;SDS011;57649;42.968;1.608;2024-02-26T13:51:29;2.47;;;1.00;;
70253;SDS011;57649;42.968;1.608;2024-02-26T13:54:00;5.85;;;1.27;;
70253;SDS011;57649;42.968;1.608;2024-02-26T13:56:26;2.33;;;1.00;;
70253;SDS011;57649;42.968;1.608;2024-02-26T13:58:54;3.30;;;1.05;;
70253;SDS011;57649;42.968;1.608;2024-02-26T14:01:19;1.77;;;0.93;;
70253;SDS011;57649;42.968;1.608;2024-02-26T14:03:45;2.03;;;0.85;;
70253;SDS011;57649;42.968;1.608;2024-02-26T14:06:10;1.60;;;0.77;;
70253;SDS011;57649;42.968;1.608;2024-02-26T14:08:36;4.88;;;0.85;;
70253;SDS011;57649;42.968;1.608;2024-02-26T14:11:02;3.60;;;1.42;;
70253;SDS011;57649;42.968;1.608;2024-02-26T14:13:28;1.65;;;0.70;;
70253;SDS011;57649;42.968;1.608;2024-02-26T14:15:53;1.10;;;0.65;;
70253;SDS011;57649;42.968;1.608;2024-02-26T14:18:19;2.63;;;1.15;;
70253;SDS011;57649;42.968;1.608;2024-02-26T14:20:44;2.58;;;0.85;;
70253;SDS011;57649;42.968;1.608;2024-02-26T14:23:10;4.32;;;2.42;;
70253;SDS011;57649;42.968;1.608;2024-02-26T14:25:35;3.47;;;1.25;;
70253;SDS011;57649;42.968;1.608;2024-02-26T14:28:01;4.15;;;2.20;;
70253;SDS011;57649;42.968;1.608;2024-02-26T14:30:27;3.60;;;1.00;;
70253;SDS011;57649;42.968;1.608;2024-02-26T14:32:52;2.67;;;0.90;;
70253;SDS011;57649;42.968;1.608;2024-02-26T14:35:18;3.38;;;1.08;;
70253;SDS011;57649;42.968;1.608;2024-02-26T14:37:44;5.95;;;1.75;;
70253;SDS011;57649;42.968;1.608;2024-02-26T14:40:13;2.88;;;1.00;;
70253;SDS011;57649;42.968;1.608;2024-02-26T14:42:39;1.83;;;1.00;;
70253;SDS011;57649;42.968;1.608;2024-02-26T14:45:05;5.43;;;2.00;;
70253;SDS011;57649;42.968;1.608;2024-02-26T14:47:34;1.98;;;1.05;;